createdAt,value
2023-12-30T00:00:17.859Z,3.40
2023-12-30T00:02:46.409Z,2.60
2023-12-30T00:05:13.200Z,4.13
2023-12-30T00:07:39.689Z,4.60
2023-12-30T00:10:06.749Z,3.45
2023-12-30T00:12:33.314Z,2.83
2023-12-30T00:14:59.811Z,3.63
2023-12-30T00:17:26.386Z,3.42
2023-12-30T00:19:54.883Z,2.40
2023-12-30T00:22:22.524Z,2.78
2023-12-30T00:24:49.183Z,3.00
2023-12-30T00:27:15.705Z,4.45
2023-12-30T00:29:42.375Z,5.22
2023-12-30T00:32:09.063Z,4.35
2023-12-30T00:34:36.191Z,4.20
2023-12-30T00:37:02.854Z,5.18
2023-12-30T00:39:29.450Z,3.92
2023-12-30T00:41:56.006Z,2.95
2023-12-30T00:44:22.570Z,3.40
2023-12-30T00:46:49.109Z,5.60
2023-12-30T00:49:16.645Z,4.75
2023-12-30T00:51:43.330Z,3.33
2023-12-30T00:54:09.802Z,3.90
2023-12-30T00:56:36.763Z,4.05
2023-12-30T00:59:03.408Z,4.43
2023-12-30T01:01:29.993Z,4.53
2023-12-30T01:03:56.633Z,4.93
2023-12-30T01:06:23.251Z,3.20
2023-12-30T01:08:49.768Z,3.97
2023-12-30T01:11:16.980Z,5.38
2023-12-30T01:13:43.469Z,4.28
2023-12-30T01:16:10.047Z,5.18
2023-12-30T01:18:36.651Z,4.45
2023-12-30T01:21:04.831Z,5.45
2023-12-30T01:23:31.353Z,4.78
2023-12-30T01:25:57.860Z,3.97
2023-12-30T01:28:24.413Z,5.40
2023-12-30T01:30:51.069Z,3.55
2023-12-30T01:33:17.825Z,6.90
2023-12-30T01:35:44.430Z,5.97
2023-12-30T01:38:10.978Z,3.47
2023-12-30T01:40:44.570Z,5.30
2023-12-30T01:43:25.591Z,5.57
2023-12-30T01:45:54.234Z,5.10
2023-12-30T01:48:22.094Z,5.60
2023-12-30T01:50:51.058Z,5.03
2023-12-30T01:53:18.656Z,3.75
2023-12-30T01:55:50.360Z,4.90
2023-12-30T02:00:43.750Z,5.20
2023-12-30T02:03:10.921Z,5.35
2023-12-30T02:05:37.449Z,3.38
2023-12-30T02:08:04.893Z,3.55
2023-12-30T02:10:31.568Z,5.15
2023-12-30T02:12:58.200Z,4.03
2023-12-30T02:15:27.822Z,4.22
2023-12-30T02:17:57.673Z,4.43
2023-12-30T02:20:24.477Z,5.07
2023-12-30T02:22:50.984Z,5.57
2023-12-30T02:25:18.025Z,4.50
2023-12-30T02:27:45.260Z,4.53
2023-12-30T02:30:13.276Z,3.33
2023-12-30T02:32:40.310Z,4.40
2023-12-30T02:35:07.264Z,4.80
2023-12-30T02:37:33.908Z,4.18
2023-12-30T02:40:00.698Z,3.58
2023-12-30T02:42:27.391Z,4.32
2023-12-30T02:44:55.107Z,4.63
2023-12-30T02:47:21.633Z,4.60
2023-12-30T02:49:48.348Z,4.18
2023-12-30T02:52:14.969Z,4.68
2023-12-30T02:54:41.606Z,5.63
2023-12-30T02:57:08.181Z,5.57
2023-12-30T02:59:34.897Z,7.63
2023-12-30T03:02:01.608Z,6.38
2023-12-30T03:04:28.353Z,4.82
2023-12-30T03:06:55.060Z,4.43
2023-12-30T03:09:21.588Z,5.57
2023-12-30T03:11:48.200Z,3.85
2023-12-30T03:14:14.814Z,4.95
2023-12-30T03:16:41.367Z,3.15
2023-12-30T03:19:07.945Z,5.13
2023-12-30T03:21:34.580Z,5.30
2023-12-30T03:24:01.087Z,4.22
2023-12-30T03:26:27.612Z,5.57
2023-12-30T03:28:54.208Z,4.05
2023-12-30T03:31:25.834Z,4.75
2023-12-30T03:33:53.354Z,3.22
2023-12-30T03:36:20.464Z,3.58
2023-12-30T03:38:53.834Z,4.28
2023-12-30T03:41:21.736Z,5.47
2023-12-30T03:43:49.846Z,3.67
2023-12-30T03:46:16.501Z,4.43
2023-12-30T03:48:43.146Z,4.38
2023-12-30T03:51:10.768Z,5.43
2023-12-30T03:53:39.533Z,4.03
2023-12-30T03:56:06.334Z,4.22
2023-12-30T03:58:32.916Z,3.92
2023-12-30T04:00:59.710Z,3.92
2023-12-30T04:03:26.216Z,4.45
2023-12-30T04:05:52.972Z,3.20
2023-12-30T04:08:19.548Z,5.47
2023-12-30T04:10:46.055Z,4.78
2023-12-30T04:13:12.608Z,4.90
2023-12-30T04:15:39.446Z,3.72
2023-12-30T04:18:06.421Z,3.50
2023-12-30T04:20:33.040Z,4.13
2023-12-30T04:22:59.883Z,4.40
2023-12-30T04:25:26.750Z,4.85
2023-12-30T04:27:53.335Z,4.28
2023-12-30T04:30:20.083Z,3.85
2023-12-30T04:32:46.682Z,4.35
2023-12-30T04:35:13.469Z,4.10
2023-12-30T04:37:40.035Z,4.25
2023-12-30T04:40:07.100Z,5.07
2023-12-30T04:42:33.716Z,5.88
2023-12-30T04:45:00.251Z,4.00
2023-12-30T04:47:26.826Z,3.53
2023-12-30T04:49:53.372Z,2.67
2023-12-30T04:52:20.956Z,3.67
2023-12-30T04:54:47.594Z,3.78
2023-12-30T04:57:14.117Z,3.67
2023-12-30T04:59:40.630Z,4.13
2023-12-30T05:02:07.376Z,4.25
2023-12-30T05:04:34.904Z,2.60
2023-12-30T05:07:01.621Z,3.60
2023-12-30T05:09:28.292Z,5.13
2023-12-30T05:11:55.671Z,4.32
2023-12-30T05:14:23.201Z,4.57
2023-12-30T05:16:49.760Z,4.03
2023-12-30T05:19:17.243Z,3.88
2023-12-30T05:21:44.770Z,4.05
2023-12-30T05:24:11.421Z,6.13
2023-12-30T05:26:38.020Z,3.40
2023-12-30T05:29:04.515Z,3.50
2023-12-30T05:31:31.089Z,2.20
2023-12-30T05:33:57.758Z,3.88
2023-12-30T05:36:24.305Z,3.28
2023-12-30T05:38:50.803Z,4.40
2023-12-30T05:41:17.394Z,4.13
2023-12-30T05:43:44.432Z,4.47
2023-12-30T05:46:20.217Z,3.58
2023-12-30T05:48:47.806Z,6.80
2023-12-30T05:51:14.346Z,2.63
2023-12-30T05:53:42.162Z,2.45
2023-12-30T05:56:08.919Z,3.53
2023-12-30T05:58:39.273Z,4.47
2023-12-30T06:01:07.965Z,4.32
2023-12-30T06:03:36.667Z,4.80
2023-12-30T06:06:04.449Z,4.45
2023-12-30T06:08:32.893Z,5.53
2023-12-30T06:10:59.492Z,4.07
2023-12-30T06:13:26.155Z,6.25
2023-12-30T06:15:52.814Z,4.00
2023-12-30T06:18:19.434Z,3.33
2023-12-30T06:20:47.616Z,4.85
2023-12-30T06:23:14.942Z,2.55
2023-12-30T06:25:41.928Z,4.75
2023-12-30T06:28:08.648Z,4.30
2023-12-30T06:30:35.444Z,3.72
2023-12-30T06:33:08.142Z,4.13
2023-12-30T06:35:35.822Z,4.00
2023-12-30T06:38:02.937Z,3.53
2023-12-30T06:40:29.550Z,4.30
2023-12-30T06:42:57.228Z,4.30
2023-12-30T06:45:23.830Z,4.40
2023-12-30T06:47:50.432Z,3.75
2023-12-30T06:50:19.655Z,3.90
2023-12-30T06:52:48.561Z,3.90
2023-12-30T06:55:22.883Z,3.60
2023-12-30T06:57:53.536Z,5.45
2023-12-30T07:00:22.552Z,6.30
2023-12-30T07:02:49.208Z,3.90
2023-12-30T07:05:15.974Z,1.95
2023-12-30T07:07:42.798Z,2.75
2023-12-30T07:10:09.632Z,3.88
2023-12-30T07:12:36.237Z,4.05
2023-12-30T07:15:03.149Z,5.05
2023-12-30T07:17:29.768Z,4.97
2023-12-30T07:19:58.302Z,5.55
2023-12-30T07:22:25.966Z,4.80
2023-12-30T07:24:52.787Z,5.15
2023-12-30T07:27:19.516Z,5.63
2023-12-30T07:29:47.072Z,6.40
2023-12-30T07:32:13.633Z,4.80
2023-12-30T07:34:41.028Z,6.05
2023-12-30T07:37:07.831Z,5.95
2023-12-30T07:39:34.506Z,3.83
2023-12-30T07:42:01.258Z,4.05
2023-12-30T07:44:29.892Z,3.88
2023-12-30T07:46:56.561Z,5.28
2023-12-30T07:49:24.190Z,5.38
2023-12-30T07:51:50.877Z,5.28
2023-12-30T07:54:18.435Z,7.18
2023-12-30T07:56:45.021Z,4.15
2023-12-30T07:59:13.436Z,6.00
2023-12-30T08:01:45.128Z,5.15
2023-12-30T08:04:12.227Z,4.70
2023-12-30T08:06:41.081Z,4.93
2023-12-30T08:09:09.200Z,5.95
2023-12-30T08:11:49.577Z,4.90
2023-12-30T08:14:22.419Z,4.93
2023-12-30T08:16:48.917Z,3.80
2023-12-30T08:19:15.897Z,5.80
2023-12-30T08:21:42.488Z,5.10
2023-12-30T08:24:09.214Z,3.65
2023-12-30T08:26:36.923Z,5.90
2023-12-30T08:29:03.517Z,3.50
2023-12-30T08:31:30.108Z,6.25
2023-12-30T08:33:56.802Z,5.85
2023-12-30T08:36:24.186Z,3.75
2023-12-30T08:38:50.792Z,6.53
2023-12-30T08:41:17.678Z,8.35
2023-12-30T08:43:44.616Z,7.72
2023-12-30T08:46:11.546Z,6.95
2023-12-30T08:48:38.517Z,3.42
2023-12-30T08:51:06.272Z,4.97
2023-12-30T08:53:33.816Z,7.65
2023-12-30T08:56:03.238Z,6.40
2023-12-30T08:58:29.826Z,5.45
2023-12-30T09:00:56.363Z,5.07
2023-12-30T09:03:22.936Z,6.07
2023-12-30T09:05:49.871Z,4.70
2023-12-30T09:08:16.498Z,5.55
2023-12-30T09:10:44.113Z,7.85
2023-12-30T09:13:10.744Z,4.85
2023-12-30T09:15:37.925Z,6.00
2023-12-30T09:18:05.287Z,4.40
2023-12-30T09:20:31.900Z,6.68
2023-12-30T09:22:58.418Z,5.90
2023-12-30T09:25:25.593Z,4.60
2023-12-30T09:27:52.091Z,7.20
2023-12-30T09:30:18.654Z,4.82
2023-12-30T09:32:46.537Z,6.30
2023-12-30T09:35:13.248Z,5.28
2023-12-30T09:37:40.438Z,6.40
2023-12-30T09:40:07.646Z,9.05
2023-12-30T09:42:38.224Z,4.60
2023-12-30T09:45:05.946Z,4.60
2023-12-30T09:47:34.145Z,4.15
2023-12-30T09:50:00.744Z,5.47
2023-12-30T09:52:27.315Z,4.10
2023-12-30T09:54:53.954Z,5.75
2023-12-30T09:57:22.142Z,4.95
2023-12-30T09:59:49.171Z,7.22
2023-12-30T10:02:15.976Z,6.22
2023-12-30T10:04:44.247Z,4.18
2023-12-30T10:07:12.947Z,5.13
2023-12-30T10:09:39.719Z,4.80
2023-12-30T10:12:06.897Z,4.13
2023-12-30T10:14:33.421Z,5.15
2023-12-30T10:17:03.328Z,7.55
2023-12-30T10:19:30.651Z,4.00
2023-12-30T10:21:57.602Z,4.20
2023-12-30T10:24:25.147Z,4.50
2023-12-30T10:26:51.718Z,5.50
2023-12-30T10:29:20.652Z,8.45
2023-12-30T10:32:02.385Z,3.88
2023-12-30T10:34:28.959Z,3.90
2023-12-30T10:36:56.965Z,5.30
2023-12-30T10:39:23.990Z,4.70
2023-12-30T10:41:50.514Z,4.97
2023-12-30T10:44:17.461Z,4.45
2023-12-30T10:46:48.767Z,5.70
2023-12-30T10:49:17.571Z,5.90
2023-12-30T10:51:44.836Z,3.80
2023-12-30T10:54:17.612Z,4.38
2023-12-30T10:56:46.058Z,3.65
2023-12-30T10:59:13.756Z,4.80
2023-12-30T11:01:41.815Z,6.25
2023-12-30T11:04:13.244Z,5.68
2023-12-30T11:06:57.137Z,3.78
2023-12-30T11:09:25.425Z,4.32
2023-12-30T11:11:55.341Z,4.18
2023-12-30T11:14:22.752Z,5.55
2023-12-30T11:16:52.856Z,4.10
2023-12-30T11:19:30.904Z,5.70
2023-12-30T11:22:02.417Z,5.63
2023-12-30T11:24:29.324Z,6.03
2023-12-30T11:26:56.396Z,4.00
2023-12-30T11:29:30.560Z,4.82
2023-12-30T11:31:59.967Z,6.18
2023-12-30T11:34:28.676Z,5.25
2023-12-30T11:36:59.446Z,5.15
2023-12-30T11:39:32.418Z,6.63
2023-12-30T11:42:00.297Z,6.93
2023-12-30T11:44:29.067Z,3.95
2023-12-30T11:46:55.801Z,4.10
2023-12-30T11:49:24.842Z,3.97
2023-12-30T11:51:52.482Z,3.75
2023-12-30T11:54:19.415Z,6.30
2023-12-30T11:56:47.030Z,5.00
2023-12-30T11:59:14.092Z,5.72
2023-12-30T12:01:42.512Z,4.40
2023-12-30T12:04:09.953Z,5.38
2023-12-30T12:06:37.269Z,10.07
2023-12-30T12:09:07.416Z,5.85
2023-12-30T12:11:34.069Z,5.60
2023-12-30T12:14:00.733Z,4.93
2023-12-30T12:16:28.974Z,7.15
2023-12-30T12:18:56.288Z,4.32
2023-12-30T12:21:26.417Z,3.88
2023-12-30T12:23:54.767Z,2.63
2023-12-30T12:26:23.275Z,3.78
2023-12-30T12:28:49.884Z,4.70
2023-12-30T12:31:18.318Z,5.25
2023-12-30T12:33:45.022Z,4.13
2023-12-30T12:36:12.073Z,6.03
2023-12-30T12:38:38.709Z,6.18
2023-12-30T12:41:05.396Z,5.53
2023-12-30T12:43:32.557Z,6.82
2023-12-30T12:45:59.453Z,5.10
2023-12-30T12:48:26.210Z,7.75
2023-12-30T12:50:56.898Z,7.43
2023-12-30T12:53:24.356Z,2.95
2023-12-30T12:55:51.116Z,5.60
2023-12-30T12:58:26.697Z,6.07
2023-12-30T13:00:57.497Z,7.32
2023-12-30T13:03:24.175Z,5.80
2023-12-30T13:05:50.785Z,5.35
2023-12-30T13:08:18.563Z,3.75
2023-12-30T13:10:49.926Z,2.88
2023-12-30T13:15:43.813Z,2.95
2023-12-30T13:18:14.454Z,5.70
2023-12-30T13:20:43.490Z,4.60
2023-12-30T13:23:12.051Z,3.63
2023-12-30T13:25:39.264Z,4.45
2023-12-30T13:28:06.319Z,5.05
2023-12-30T13:30:33.026Z,4.13
2023-12-30T13:33:02.611Z,3.80
2023-12-30T13:35:38.209Z,5.13
2023-12-30T13:38:13.720Z,4.35
2023-12-30T13:40:44.458Z,5.65
2023-12-30T13:43:11.742Z,5.35
2023-12-30T13:45:44.661Z,4.35
2023-12-30T13:48:52.142Z,4.68
2023-12-30T13:51:21.173Z,5.07
2023-12-30T13:53:47.916Z,3.92
2023-12-30T13:56:22.231Z,4.65
2023-12-30T13:58:50.103Z,3.72
2023-12-30T14:01:18.304Z,4.95
2023-12-30T14:03:47.424Z,4.60
2023-12-30T14:06:18.960Z,6.78
2023-12-30T14:08:50.041Z,4.65
2023-12-30T14:11:32.598Z,6.30
2023-12-30T14:14:03.028Z,8.32
2023-12-30T14:16:33.056Z,5.35
2023-12-30T14:19:00.937Z,5.57
2023-12-30T14:21:28.610Z,4.35
2023-12-30T14:23:55.157Z,3.75
2023-12-30T14:26:22.400Z,4.68
2023-12-30T14:28:49.265Z,4.05
2023-12-30T14:31:16.904Z,5.43
2023-12-30T14:33:43.882Z,4.60
2023-12-30T14:36:10.628Z,7.93
2023-12-30T14:38:37.728Z,8.40
2023-12-30T14:41:06.424Z,5.95
2023-12-30T14:43:33.504Z,4.00
2023-12-30T14:46:00.955Z,4.03
2023-12-30T14:48:27.881Z,5.53
2023-12-30T14:50:54.397Z,5.65
2023-12-30T14:55:49.515Z,10.38
2023-12-30T14:58:16.219Z,10.15
2023-12-30T15:00:43.848Z,11.02
2023-12-30T15:03:10.551Z,9.68
2023-12-30T15:05:37.172Z,7.05
2023-12-30T15:08:04.467Z,2.80
2023-12-30T15:10:31.146Z,4.75
2023-12-30T15:12:57.702Z,4.20
2023-12-30T15:15:25.293Z,4.15
2023-12-30T15:17:52.360Z,3.17
2023-12-30T15:20:20.219Z,6.00
2023-12-30T15:22:47.099Z,9.13
2023-12-30T15:25:13.964Z,7.28
2023-12-30T15:27:45.024Z,7.93
2023-12-30T15:30:12.279Z,8.63
2023-12-30T15:32:41.864Z,10.00
2023-12-30T15:35:11.107Z,9.50
2023-12-30T15:37:37.851Z,8.18
2023-12-30T15:40:05.723Z,9.55
2023-12-30T15:42:32.452Z,9.02
2023-12-30T15:45:00.992Z,9.18
2023-12-30T15:47:28.733Z,8.38
2023-12-30T15:49:57.136Z,8.57
2023-12-30T15:52:23.814Z,8.57
2023-12-30T15:54:51.843Z,7.63
2023-12-30T15:57:18.448Z,7.70
2023-12-30T15:59:46.979Z,8.88
2023-12-30T16:02:13.541Z,6.95
2023-12-30T16:04:42.070Z,6.57
2023-12-30T16:07:08.752Z,5.80
2023-12-30T16:09:43.152Z,6.97
2023-12-30T16:12:10.337Z,4.55
2023-12-30T16:14:38.816Z,6.82
2023-12-30T16:17:08.287Z,6.55
2023-12-30T16:19:35.195Z,5.05
2023-12-30T16:22:01.904Z,4.22
2023-12-30T16:24:28.508Z,4.85
2023-12-30T16:26:56.456Z,6.53
2023-12-30T16:29:23.545Z,5.25
2023-12-30T16:31:50.582Z,6.45
2023-12-30T16:34:17.307Z,14.18
2023-12-30T16:36:44.034Z,6.32
2023-12-30T16:39:11.630Z,13.20
2023-12-30T16:41:38.344Z,9.85
2023-12-30T16:44:05.020Z,4.05
2023-12-30T16:46:32.093Z,6.30
2023-12-30T16:48:59.511Z,7.70
2023-12-30T16:51:26.258Z,5.35
2023-12-30T16:53:52.784Z,5.45
2023-12-30T16:56:19.457Z,5.10
2023-12-30T16:58:47.249Z,5.78
2023-12-30T17:01:14.139Z,7.60
2023-12-30T17:03:40.740Z,4.68
2023-12-30T17:06:07.352Z,5.47
2023-12-30T17:08:33.898Z,5.72
2023-12-30T17:11:00.500Z,5.07
2023-12-30T17:13:35.008Z,4.85
2023-12-30T17:16:06.909Z,4.35
2023-12-30T17:18:33.529Z,3.72
2023-12-30T17:21:00.717Z,14.02
2023-12-30T17:23:27.245Z,10.25
2023-12-30T17:25:53.829Z,16.60
2023-12-30T17:28:20.402Z,18.00
2023-12-30T17:30:47.045Z,9.05
2023-12-30T17:33:14.541Z,7.93
2023-12-30T17:35:41.103Z,6.45
2023-12-30T17:38:09.383Z,6.32
2023-12-30T17:40:36.111Z,5.18
2023-12-30T17:43:02.989Z,6.28
2023-12-30T17:45:30.748Z,5.03
2023-12-30T17:47:57.341Z,5.13
2023-12-30T17:50:23.941Z,8.30
2023-12-30T17:52:51.183Z,9.70
2023-12-30T17:55:17.707Z,23.40
2023-12-30T17:57:44.266Z,8.77
2023-12-30T18:00:11.929Z,17.58
2023-12-30T18:02:39.413Z,5.18
2023-12-30T18:05:06.127Z,5.35
2023-12-30T18:07:33.223Z,7.22
2023-12-30T18:09:59.899Z,4.32
2023-12-30T18:12:26.416Z,7.82
2023-12-30T18:14:52.984Z,4.05
2023-12-30T18:17:19.575Z,5.50
2023-12-30T18:19:46.305Z,3.70
2023-12-30T18:22:13.332Z,6.57
2023-12-30T18:24:39.847Z,4.70
2023-12-30T18:27:06.908Z,8.10
2023-12-30T18:29:33.475Z,10.82
2023-12-30T18:32:02.834Z,11.70
2023-12-30T18:34:30.474Z,8.93
2023-12-30T18:36:57.084Z,8.50
2023-12-30T18:39:24.506Z,4.90
2023-12-30T18:41:51.061Z,5.18
2023-12-30T18:44:17.701Z,5.88
2023-12-30T18:46:44.267Z,6.78
2023-12-30T18:49:11.082Z,5.53
2023-12-30T18:51:37.662Z,6.40
2023-12-30T18:54:04.219Z,6.60
2023-12-30T18:56:31.395Z,8.40
2023-12-30T18:58:57.987Z,10.10
2023-12-30T19:01:24.538Z,9.27
2023-12-30T19:03:54.087Z,17.75
2023-12-30T19:06:20.994Z,16.00
2023-12-30T19:08:48.535Z,14.68
2023-12-30T19:11:15.026Z,11.25
2023-12-30T19:13:43.554Z,14.68
2023-12-30T19:16:10.305Z,12.30
2023-12-30T19:18:36.873Z,28.88
2023-12-30T19:21:04.105Z,19.38
2023-12-30T19:23:31.809Z,13.27
2023-12-30T19:25:58.460Z,12.60
2023-12-30T19:28:25.051Z,10.50
2023-12-30T19:30:52.504Z,10.85
2023-12-30T19:33:19.351Z,10.55
2023-12-30T19:35:46.536Z,7.38
2023-12-30T19:38:13.834Z,6.45
2023-12-30T19:40:45.975Z,6.35
2023-12-30T19:43:13.176Z,11.95
2023-12-30T19:45:39.743Z,7.57
2023-12-30T19:48:06.710Z,18.92
2023-12-30T19:50:33.338Z,10.68
2023-12-30T19:53:00.063Z,6.78
2023-12-30T19:55:26.787Z,9.10
2023-12-30T19:57:54.115Z,7.85
2023-12-30T20:00:20.697Z,7.20
2023-12-30T20:02:47.889Z,7.00
2023-12-30T20:05:14.709Z,12.05
2023-12-30T20:07:41.478Z,7.38
2023-12-30T20:10:12.690Z,9.38
2023-12-30T20:12:40.660Z,5.97
2023-12-30T20:15:08.455Z,5.25
2023-12-30T20:17:36.735Z,9.70
2023-12-30T20:20:07.086Z,10.30
2023-12-30T20:22:34.801Z,8.07
2023-12-30T20:25:01.586Z,8.70
2023-12-30T20:27:28.874Z,7.03
2023-12-30T20:29:55.562Z,7.97
2023-12-30T20:32:22.905Z,13.30
2023-12-30T20:34:49.722Z,10.48
2023-12-30T20:37:18.851Z,6.55
2023-12-30T20:39:45.744Z,5.60
2023-12-30T20:42:12.399Z,9.15
2023-12-30T20:44:39.294Z,19.52
2023-12-30T20:47:05.994Z,18.05
2023-12-30T20:49:32.571Z,9.27
2023-12-30T20:51:59.552Z,11.25
2023-12-30T20:54:26.038Z,7.40
2023-12-30T20:56:52.632Z,8.52
2023-12-30T20:59:21.742Z,9.13
2023-12-30T21:01:49.147Z,8.57
2023-12-30T21:04:16.726Z,8.38
2023-12-30T21:06:43.774Z,10.63
2023-12-30T21:09:10.956Z,9.52
2023-12-30T21:11:37.996Z,11.13
2023-12-30T21:14:05.412Z,9.35
2023-12-30T21:16:32.313Z,9.73
2023-12-30T21:18:59.876Z,9.63
2023-12-30T21:21:26.556Z,10.25
2023-12-30T21:23:54.107Z,9.65
2023-12-30T21:26:22.726Z,9.50
2023-12-30T21:28:50.342Z,9.60
2023-12-30T21:31:16.962Z,10.55
2023-12-30T21:33:43.679Z,9.52
2023-12-30T21:36:10.221Z,9.27
2023-12-30T21:38:37.254Z,8.43
2023-12-30T21:41:05.497Z,7.15
2023-12-30T21:43:32.139Z,5.80
2023-12-30T21:45:59.401Z,6.57
2023-12-30T21:48:26.060Z,6.82
2023-12-30T21:50:52.785Z,6.97
2023-12-30T21:53:19.319Z,7.30
2023-12-30T21:55:46.202Z,9.55
2023-12-30T21:58:12.856Z,9.57
2023-12-30T22:00:41.160Z,10.48
2023-12-30T22:03:08.043Z,8.98
2023-12-30T22:05:36.316Z,11.93
2023-12-30T22:08:03.072Z,8.40
2023-12-30T22:10:30.917Z,7.97
2023-12-30T22:12:57.489Z,11.38
2023-12-30T22:15:24.064Z,9.05
2023-12-30T22:17:50.690Z,10.35
2023-12-30T22:20:17.196Z,9.45
2023-12-30T22:22:43.816Z,9.55
2023-12-30T22:25:10.469Z,8.05
2023-12-30T22:27:37.062Z,7.10
2023-12-30T22:30:03.838Z,9.20
2023-12-30T22:32:31.060Z,13.80
2023-12-30T22:34:59.549Z,10.68
2023-12-30T22:37:27.108Z,7.70
2023-12-30T22:39:54.649Z,9.40
2023-12-30T22:42:21.414Z,8.48
2023-12-30T22:44:47.903Z,7.82
2023-12-30T22:47:14.435Z,6.68
2023-12-30T22:49:41.012Z,7.25
2023-12-30T22:52:09.180Z,6.88
2023-12-30T22:54:38.747Z,8.98
2023-12-30T22:57:09.445Z,8.70
2023-12-30T22:59:36.727Z,5.60
2023-12-30T23:02:03.633Z,6.90
2023-12-30T23:04:30.824Z,8.38
2023-12-30T23:06:59.627Z,7.63
2023-12-30T23:09:26.873Z,9.32
2023-12-30T23:11:59.322Z,6.82
2023-12-30T23:14:26.864Z,7.60
2023-12-30T23:16:53.460Z,8.68
2023-12-30T23:19:20.535Z,8.70
2023-12-30T23:21:47.064Z,10.18
2023-12-30T23:24:13.556Z,7.53
2023-12-30T23:26:40.322Z,6.93
2023-12-30T23:29:06.961Z,8.23
2023-12-30T23:31:33.607Z,7.05
2023-12-30T23:34:00.368Z,9.18
2023-12-30T23:36:28.012Z,8.05
2023-12-30T23:38:54.525Z,7.13
2023-12-30T23:41:21.103Z,9.52
2023-12-30T23:43:47.701Z,7.50
2023-12-30T23:46:14.413Z,6.50
2023-12-30T23:48:41.003Z,7.25
2023-12-30T23:51:07.535Z,6.15
2023-12-30T23:53:35.166Z,8.18
2023-12-30T23:56:03.381Z,6.70
2023-12-30T23:58:29.989Z,7.25
